Time;durP1;ratioP1;P1;durP2;ratioP2;P2;SDS_P1;SDS_P2;PMS_P1;PMS_P2;Temp;Humidity;BMP_temperature;BMP_pressure;BME280_temperature;BME280_humidity;BME280_pressure;Samples;Min_cycle;Max_cycle;Signal;HPM_P1;HPM_P2
2022/09/12 00:01:48;;;;;;;9.53;7.90;;;;;;;13.06;85.20;101055.53;5030049;28;20577;-79
2022/09/12 00:04:14;;;;;;;11.17;9.33;;;;;;;13.07;85.32;101056.41;5028788;28;20237;-80
2022/09/12 00:06:42;;;;;;;13.37;8.90;;;;;;;13.06;85.76;101054.69;5031477;28;20210;-80
2022/09/12 00:09:10;;;;;;;10.87;9.73;;;;;;;13.03;85.64;101050.41;5028203;28;21376;-80
2022/09/12 00:11:38;;;;;;;10.03;8.37;;;;;;;13.01;86.18;101049.63;5030029;28;20234;-79
2022/09/12 00:14:07;;;;;;;12.47;8.57;;;;;;;13.01;86.21;101051.47;5030870;28;20202;-80
2022/09/12 00:16:36;;;;;;;10.20;9.07;;;;;;;12.98;85.92;101055.19;5027582;28;20574;-79
2022/09/12 00:19:04;;;;;;;10.47;9.30;;;;;;;12.95;86.08;101042.03;5030638;28;20567;-79
2022/09/12 00:21:34;;;;;;;10.43;8.90;;;;;;;12.94;86.29;101048.31;5032352;28;20755;-79
2022/09/12 00:24:01;;;;;;;10.43;8.03;;;;;;;12.92;86.06;101052.06;5031694;28;20218;-79
2022/09/12 00:26:28;;;;;;;9.00;7.93;;;;;;;12.86;85.80;101046.19;5031030;28;20232;-79
2022/09/12 00:28:54;;;;;;;10.77;7.93;;;;;;;12.81;85.85;101042.94;5028895;28;20198;-79
2022/09/12 00:31:23;;;;;;;10.30;8.07;;;;;;;12.76;85.71;101045.06;5026068;28;20225;-79
2022/09/12 00:33:52;;;;;;;10.97;8.67;;;;;;;12.72;85.63;101037.38;5028113;28;20230;-79
2022/09/12 00:36:20;;;;;;;9.67;8.23;;;;;;;12.67;85.80;101036.81;5031695;28;20202;-79
2022/09/12 00:38:49;;;;;;;12.50;10.40;;;;;;;12.65;86.08;101049.41;5032730;28;20205;-79
2022/09/12 00:41:18;;;;;;;13.20;10.40;;;;;;;12.61;86.32;101050.56;5034002;28;20317;-79
2022/09/12 00:43:46;;;;;;;11.87;9.30;;;;;;;12.58;86.44;101038.25;5031890;28;20213;-79
2022/09/12 00:46:22;;;;;;;13.33;9.23;;;;;;;12.56;86.65;101044.66;5032019;28;20218;-79
2022/09/12 00:48:55;;;;;;;12.97;10.20;;;;;;;12.55;86.70;101040.25;5035336;28;20212;-80
2022/09/12 00:51:22;;;;;;;13.10;10.87;;;;;;;12.51;87.05;101043.16;5035054;28;20228;-79
2022/09/12 00:53:53;;;;;;;13.67;11.00;;;;;;;12.50;87.54;101044.13;5031369;28;20228;-80
2022/09/12 00:56:21;;;;;;;14.77;10.53;;;;;;;12.49;87.66;101039.72;5041278;28;20206;-80
2022/09/12 00:58:52;;;;;;;15.90;11.40;;;;;;;12.47;87.48;101036.28;5032976;28;20209;-80
2022/09/12 01:01:19;;;;;;;12.53;10.20;;;;;;;12.43;87.77;101032.09;5039781;28;20225;-79
2022/09/12 01:03:46;;;;;;;13.47;10.47;;;;;;;12.41;87.59;101023.31;5041455;28;20244;-79
2022/09/12 01:06:18;;;;;;;13.37;10.60;;;;;;;12.39;87.94;101030.56;5040918;28;20583;-79
2022/09/12 01:08:47;;;;;;;12.50;9.43;;;;;;;12.36;88.35;101025.44;5036017;28;20205;-79
2022/09/12 01:11:15;;;;;;;11.30;8.97;;;;;;;12.33;88.06;101025.66;5037023;28;20222;-80
2022/09/12 01:13:44;;;;;;;8.37;7.47;;;;;;;12.29;88.17;101026.81;5033651;28;20241;-79
2022/09/12 01:16:10;;;;;;;10.10;8.30;;;;;;;12.28;88.19;101018.88;5036524;28;20228;-81
2022/09/12 01:18:51;;;;;;;9.57;7.80;;;;;;;12.28;88.44;101026.91;5043235;28;20226;-79
2022/09/12 01:21:34;;;;;;;8.93;7.73;;;;;;;12.28;88.58;101010.88;5040013;28;20231;-81
2022/09/12 01:24:29;;;;;;;9.77;8.47;;;;;;;12.27;88.63;101015.34;5039241;28;20723;-79
2022/09/12 01:27:32;;;;;;;9.43;8.40;;;;;;;12.26;89.27;101013.63;5036244;28;20208;-79
2022/09/12 01:30:05;;;;;;;9.27;7.73;;;;;;;12.25;89.06;101017.25;5023817;28;20233;-79
2022/09/12 01:32:47;;;;;;;15.73;11.40;;;;;;;12.25;89.44;101019.94;5035196;28;20229;-79
2022/09/12 01:35:23;;;;;;;11.70;8.57;;;;;;;12.25;89.20;101019.94;5043517;28;20198;-81
2022/09/12 01:38:01;;;;;;;13.00;8.80;;;;;;;12.23;89.31;101012.97;5034275;28;20221;-80
2022/09/12 01:40:33;;;;;;;10.73;8.13;;;;;;;12.23;89.08;101012.97;5041760;28;20226;-79
2022/09/12 01:43:10;;;;;;;11.63;8.10;;;;;;;12.18;89.19;101007.94;5037189;28;20651;-79
2022/09/12 01:45:43;;;;;;;9.63;8.47;;;;;;;12.15;89.09;101008.16;5034196;28;20204;-79
2022/09/12 01:48:19;;;;;;;8.90;7.40;;;;;;;12.14;89.08;101006.44;5038426;28;20699;-80
2022/09/12 01:50:52;;;;;;;8.97;7.27;;;;;;;12.11;89.21;100996.78;5035634;28;20711;-79
2022/09/12 01:53:23;;;;;;;8.37;6.97;;;;;;;12.08;89.18;100994.31;5032070;28;20728;-80
2022/09/12 01:55:56;;;;;;;8.83;7.77;;;;;;;12.06;89.00;100998.03;5037756;28;20220;-79
2022/09/12 01:58:29;;;;;;;9.27;7.27;;;;;;;12.03;88.86;100999.09;5031621;28;20195;-79
2022/09/12 02:01:01;;;;;;;12.50;8.47;;;;;;;12.01;89.02;100998.31;5036562;28;20229;-79
2022/09/12 02:03:33;;;;;;;9.57;7.50;;;;;;;12.01;89.23;100992.97;5036210;28;20225;-80
2022/09/12 02:06:04;;;;;;;8.43;7.03;;;;;;;11.99;89.13;100991.41;5035168;28;20238;-80
2022/09/12 02:08:36;;;;;;;8.30;6.10;;;;;;;11.97;88.73;100996.81;5034840;28;20213;-80
2022/09/12 02:11:07;;;;;;;7.73;6.33;;;;;;;11.95;88.76;100998.72;5028091;28;20738;-79
2022/09/12 02:13:38;;;;;;;6.20;5.53;;;;;;;11.92;88.64;100988.25;5037359;28;20799;-80
2022/09/12 02:16:09;;;;;;;6.20;5.60;;;;;;;11.91;88.63;100985.66;5037803;28;20691;-79
2022/09/12 02:18:40;;;;;;;8.23;5.07;;;;;;;11.89;88.54;100982.25;5037321;28;20211;-79
2022/09/12 02:21:08;;;;;;;6.83;4.97;;;;;;;11.86;88.11;100982.44;5036531;28;20702;-80
2022/09/12 02:23:39;;;;;;;6.70;5.90;;;;;;;11.81;87.94;100990.75;5039069;28;20203;-79
2022/09/12 02:26:11;;;;;;;8.20;6.47;;;;;;;11.76;87.81;100984.84;5034511;28;20205;-79
2022/09/12 02:28:42;;;;;;;9.67;7.73;;;;;;;11.72;87.95;100986.81;5038256;28;20205;-79
2022/09/12 02:31:14;;;;;;;8.60;7.77;;;;;;;11.70;88.40;100991.38;5033103;28;20218;-79
2022/09/12 02:33:49;;;;;;;9.80;7.97;;;;;;;11.69;88.29;100986.97;5039288;28;20576;-80
2022/09/12 02:36:26;;;;;;;10.07;7.97;;;;;;;11.68;88.53;100993.28;5040619;28;20207;-80
2022/09/12 02:38:54;;;;;;;11.40;8.57;;;;;;;11.66;88.86;100981.84;5037391;28;20198;-80
2022/09/12 02:41:21;;;;;;;9.70;7.83;;;;;;;11.65;88.85;100982.78;5041988;28;20268;-80
2022/09/12 02:43:50;;;;;;;10.23;8.07;;;;;;;11.66;88.98;100987.16;5036000;28;20653;-79
2022/09/12 02:46:20;;;;;;;9.77;8.63;;;;;;;11.64;88.93;100973.09;5030481;28;20218;-80
2022/09/12 02:48:48;;;;;;;10.57;8.50;;;;;;;11.62;88.86;100980.34;5030521;28;20208;-78
2022/09/12 02:51:15;;;;;;;9.50;8.10;;;;;;;11.61;88.94;100973.28;5032186;28;20228;-80
2022/09/12 02:53:41;;;;;;;10.53;9.20;;;;;;;11.60;89.14;100979.56;5028252;28;20225;-79
2022/09/12 02:56:14;;;;;;;9.17;7.80;;;;;;;11.60;89.07;100973.38;5031455;28;20216;-78
2022/09/12 02:58:40;;;;;;;14.83;9.03;;;;;;;11.59;89.16;100979.66;5034302;28;20215;-79
2022/09/12 03:01:15;;;;;;;10.73;8.07;;;;;;;11.58;89.17;100972.63;5037142;28;20227;-79
2022/09/12 03:04:01;;;;;;;11.10;8.53;;;;;;;11.55;89.19;100976.31;5024471;28;20211;-79
2022/09/12 03:06:35;;;;;;;12.57;8.43;;;;;;;11.54;89.23;100966.59;5021505;28;20200;-79
2022/09/12 03:09:11;;;;;;;11.37;9.10;;;;;;;11.52;89.27;100968.50;5029896;28;20233;-79
2022/09/12 03:11:53;;;;;;;9.47;8.03;;;;;;;11.50;89.40;100962.41;5038312;28;20233;-80
2022/09/12 03:14:33;;;;;;;8.37;7.47;;;;;;;11.47;89.15;100958.13;5027119;28;20206;-80
2022/09/12 03:17:09;;;;;;;10.20;8.27;;;;;;;11.44;89.03;100965.47;5034166;28;20674;-80
2022/09/12 03:19:48;;;;;;;9.40;7.60;;;;;;;11.40;88.89;100959.47;5032925;28;20215;-81
2022/09/12 03:22:20;;;;;;;8.10;7.17;;;;;;;11.36;89.09;100959.75;5032974;28;20202;-79
2022/09/12 03:24:51;;;;;;;8.23;7.20;;;;;;;11.35;89.11;100955.34;5033277;28;20212;-79
2022/09/12 03:27:25;;;;;;;9.07;7.47;;;;;;;11.32;89.31;100958.22;5029729;28;20205;-79
2022/09/12 03:29:53;;;;;;;10.40;8.07;;;;;;;11.32;89.33;100960.88;5029220;28;20215;-80
2022/09/12 03:32:20;;;;;;;11.90;8.47;;;;;;;11.30;89.56;100960.09;5022019;28;20226;-79
2022/09/12 03:34:47;;;;;;;11.57;9.87;;;;;;;11.29;89.50;100958.41;5029659;28;20233;-79
2022/09/12 03:37:14;;;;;;;11.33;8.90;;;;;;;11.29;89.49;100956.59;5029790;28;20207;-79
2022/09/12 03:39:40;;;;;;;12.93;9.23;;;;;;;11.29;89.60;100963.72;5029487;28;20214;-79
2022/09/12 03:42:07;;;;;;;11.40;8.63;;;;;;;11.27;89.69;100961.19;5021412;28;20211;-79
2022/09/12 03:44:33;;;;;;;13.87;9.90;;;;;;;11.26;89.55;100967.47;5029578;28;20687;-80
2022/09/12 03:47:00;;;;;;;13.57;9.90;;;;;;;11.26;89.62;100966.59;5035254;28;20659;-79
2022/09/12 03:49:26;;;;;;;11.40;9.77;;;;;;;11.25;89.52;100967.56;5030808;28;20206;-79
2022/09/12 03:51:54;;;;;;;11.53;8.87;;;;;;;11.23;89.61;100969.47;5038034;28;20235;-79
2022/09/12 03:54:20;;;;;;;8.83;7.83;;;;;;;11.20;89.36;100970.50;5033921;28;20223;-79
2022/09/12 03:56:47;;;;;;;9.53;8.20;;;;;;;11.19;89.41;100970.59;5033705;28;20208;-79
2022/09/12 03:59:13;;;;;;;12.00;8.43;;;;;;;11.16;89.45;100966.28;5028078;28;20511;-80
2022/09/12 04:01:40;;;;;;;9.87;8.27;;;;;;;11.13;89.37;100966.47;5024794;28;20236;-78
2022/09/12 04:04:07;;;;;;;9.13;7.67;;;;;;;11.09;89.20;100971.16;5034360;28;20215;-80
2022/09/12 04:06:33;;;;;;;9.23;7.40;;;;;;;11.04;89.00;100965.25;5032011;28;20206;-81
2022/09/12 04:09:01;;;;;;;9.50;7.23;;;;;;;11.01;88.77;100964.56;5028966;28;20210;-80
2022/09/12 04:11:27;;;;;;;10.07;8.10;;;;;;;10.95;88.54;100968.44;5029560;28;20232;-79
2022/09/12 04:13:54;;;;;;;9.77;7.67;;;;;;;10.88;88.33;100964.44;5028648;28;20229;-79
2022/09/12 04:16:20;;;;;;;10.90;7.93;;;;;;;10.84;88.39;100973.56;5029824;28;20211;-79
2022/09/12 04:18:47;;;;;;;9.43;7.67;;;;;;;10.81;88.57;100973.75;5030066;28;20211;-78
2022/09/12 04:21:16;;;;;;;9.77;8.30;;;;;;;10.81;88.80;100970.22;5030740;28;20701;-79
2022/09/12 04:23:43;;;;;;;9.30;8.17;;;;;;;10.78;88.78;100972.09;5029525;28;20211;-79
2022/09/12 04:26:12;;;;;;;9.10;7.70;;;;;;;10.79;89.00;100975.63;5033313;28;20662;-80
2022/09/12 04:28:39;;;;;;;9.70;7.73;;;;;;;10.78;89.18;100966.78;5037711;28;20292;-79
2022/09/12 04:31:07;;;;;;;10.23;8.40;;;;;;;10.77;89.27;100977.53;5037561;28;20721;-80
2022/09/12 04:33:34;;;;;;;12.30;8.30;;;;;;;10.76;89.29;100976.66;5038350;28;20228;-80
2022/09/12 04:36:05;;;;;;;10.27;8.60;;;;;;;10.79;89.62;100978.28;5040536;28;20206;-79
2022/09/12 04:38:32;;;;;;;12.93;8.67;;;;;;;10.79;89.72;100973.81;5038271;28;20202;-80
2022/09/12 04:40:59;;;;;;;9.50;8.07;;;;;;;10.79;89.77;100975.63;5038861;28;20234;-80
2022/09/12 04:43:27;;;;;;;9.43;7.57;;;;;;;10.79;89.80;100973.81;5040569;28;20286;-81
2022/09/12 04:45:53;;;;;;;10.57;8.13;;;;;;;10.80;89.88;100977.34;5037557;28;20903;-79
2022/09/12 04:48:20;;;;;;;12.73;8.73;;;;;;;10.79;89.84;100972.97;5042204;28;20202;-80
2022/09/12 04:50:46;;;;;;;11.03;8.13;;;;;;;10.80;89.96;100977.34;5035114;28;20223;-80
2022/09/12 04:53:13;;;;;;;9.17;8.23;;;;;;;10.79;89.85;100970.31;5040446;28;20215;-80
2022/09/12 04:55:39;;;;;;;10.97;7.93;;;;;;;10.76;89.67;100979.31;5035451;28;20210;-79
2022/09/12 04:58:06;;;;;;;11.07;8.30;;;;;;;10.71;89.61;100973.44;5034632;28;20206;-79
2022/09/12 05:00:33;;;;;;;10.27;7.93;;;;;;;10.69;89.26;100971.81;5040522;28;20229;-80
2022/09/12 05:03:00;;;;;;;10.53;7.30;;;;;;;10.67;89.59;100968.38;5036126;28;20630;-79
2022/09/12 05:05:26;;;;;;;11.17;8.30;;;;;;;10.65;89.68;100978.25;5039120;28;20212;-81
2022/09/12 05:07:53;;;;;;;11.83;8.50;;;;;;;10.64;89.76;100968.53;5034962;28;20230;-78
2022/09/12 05:10:19;;;;;;;9.97;8.10;;;;;;;10.63;89.90;100978.34;5037654;28;20578;-79
2022/09/12 05:12:47;;;;;;;8.80;7.90;;;;;;;10.64;90.13;100976.53;5038309;28;20687;-80
2022/09/12 05:15:13;;;;;;;11.83;8.53;;;;;;;10.64;90.14;100979.19;5037344;28;20230;-80
2022/09/12 05:17:41;;;;;;;11.10;8.93;;;;;;;10.66;90.48;100985.28;5033829;28;20206;-79
2022/09/12 05:20:11;;;;;;;11.37;8.50;;;;;;;10.66;90.69;100986.16;5031965;28;20785;-80
2022/09/12 05:22:38;;;;;;;14.40;8.50;;;;;;;10.68;90.81;100986.94;5032628;28;20678;-80
2022/09/12 05:25:05;;;;;;;11.63;8.90;;;;;;;10.69;91.09;100987.78;5034674;28;20210;-78
2022/09/12 05:27:31;;;;;;;12.90;8.73;;;;;;;10.70;90.89;100985.03;5032396;28;20211;-79
2022/09/12 05:29:58;;;;;;;13.10;9.77;;;;;;;10.73;91.22;100982.19;5030710;28;20226;-78
2022/09/12 05:32:24;;;;;;;13.10;10.10;;;;;;;10.76;91.98;100987.31;5028982;28;20210;-80
2022/09/12 05:34:52;;;;;;;11.20;9.37;;;;;;;10.80;92.06;100996.00;5030671;28;20229;-81
2022/09/12 05:37:19;;;;;;;14.17;10.67;;;;;;;10.86;92.61;100989.47;5030178;28;20202;-82
2022/09/12 05:39:45;;;;;;;17.77;11.20;;;;;;;10.94;93.38;100990.69;5030967;28;20264;-82
2022/09/12 05:42:12;;;;;;;16.20;10.83;;;;;;;11.02;93.57;100991.13;5029808;28;20219;-80
2022/09/12 05:44:38;;;;;;;16.33;11.50;;;;;;;11.10;93.91;100994.19;5030045;28;20208;-80
2022/09/12 05:47:05;;;;;;;15.10;10.53;;;;;;;11.19;94.32;100989.25;5024981;28;20215;-80
2022/09/12 05:49:31;;;;;;;15.33;10.83;;;;;;;11.27;94.29;100995.00;5028186;28;20212;-81
2022/09/12 05:51:59;;;;;;;13.57;10.27;;;;;;;11.32;94.58;100990.22;5032740;28;20230;-80
2022/09/12 05:54:26;;;;;;;13.30;10.47;;;;;;;11.35;94.15;100984.69;5031624;28;20689;-80
2022/09/12 05:56:52;;;;;;;11.93;9.70;;;;;;;11.38;93.95;100989.84;5031121;28;20212;-80
2022/09/12 05:59:20;;;;;;;11.43;9.47;;;;;;;11.43;94.04;100990.44;5030514;28;20207;-81
2022/09/12 06:01:48;;;;;;;14.60;10.40;;;;;;;11.48;94.51;100990.97;5031819;28;20230;-83
2022/09/12 06:04:14;;;;;;;13.27;10.70;;;;;;;11.54;94.64;100995.09;5026282;28;20230;-81
2022/09/12 06:06:43;;;;;;;15.87;10.50;;;;;;;11.61;94.87;100999.97;5028470;28;20598;-80
2022/09/12 06:09:12;;;;;;;14.70;10.60;;;;;;;11.71;95.61;100998.41;5032809;28;20683;-82
2022/09/12 06:11:40;;;;;;;15.53;11.90;;;;;;;11.81;95.95;100991.59;5032328;28;20239;-80
2022/09/12 06:14:08;;;;;;;15.60;12.00;;;;;;;11.93;95.92;100995.31;5032685;28;20612;-82
2022/09/12 06:16:35;;;;;;;15.27;11.70;;;;;;;12.03;96.06;100992.88;5034890;28;20216;-79
2022/09/12 06:19:05;;;;;;;15.53;11.47;;;;;;;12.13;96.69;100991.38;5032580;28;20258;-82
2022/09/12 06:21:33;;;;;;;18.30;12.33;;;;;;;12.25;97.16;100987.03;5034952;28;20235;-82
2022/09/12 06:24:00;;;;;;;15.67;12.70;;;;;;;12.37;97.31;100978.22;5033612;28;20202;-81
2022/09/12 06:26:28;;;;;;;15.27;12.87;;;;;;;12.50;97.54;100985.34;5025537;28;20202;-81
2022/09/12 06:28:56;;;;;;;15.50;12.13;;;;;;;12.63;98.00;100985.38;5025045;28;20207;-81
2022/09/12 06:31:25;;;;;;;15.03;10.47;;;;;;;12.75;97.64;100981.88;5030203;28;20458;-82
2022/09/12 06:33:53;;;;;;;14.10;10.20;;;;;;;12.85;97.34;100979.44;5033585;28;20663;-80
2022/09/12 06:36:22;;;;;;;12.70;11.30;;;;;;;12.94;96.86;100973.47;5037589;28;20209;-82
2022/09/12 06:38:54;;;;;;;13.33;11.10;;;;;;;13.02;96.78;100975.63;5031612;28;20214;-82
2022/09/12 06:41:20;;;;;;;14.07;10.90;;;;;;;13.11;96.28;100977.66;5031268;28;20226;-81
2022/09/12 06:43:48;;;;;;;14.90;10.67;;;;;;;13.22;96.36;100980.50;5029628;28;20268;-82
2022/09/12 06:46:15;;;;;;;14.70;10.97;;;;;;;13.31;95.78;100987.88;5030176;28;20584;-81
2022/09/12 06:48:42;;;;;;;13.43;10.23;;;;;;;13.39;95.63;100982.00;5027136;28;20579;-81
2022/09/12 06:51:12;;;;;;;14.67;10.83;;;;;;;13.48;94.68;100981.34;5032238;28;20230;-82
2022/09/12 06:53:39;;;;;;;17.60;10.57;;;;;;;13.56;95.14;100987.03;5028849;28;20206;-83
2022/09/12 06:56:07;;;;;;;13.77;10.50;;;;;;;13.65;94.57;100978.34;5037773;28;20210;-80
2022/09/12 06:58:34;;;;;;;14.03;10.03;;;;;;;13.76;94.56;100973.09;5035303;28;20202;-80
2022/09/12 07:01:04;;;;;;;15.17;9.57;;;;;;;13.88;94.37;100980.25;5022509;28;20222;-82
2022/09/12 07:03:31;;;;;;;15.10;10.40;;;;;;;14.00;94.22;100974.94;5032755;28;20210;-81
2022/09/12 07:06:01;;;;;;;18.43;11.60;;;;;;;14.15;94.71;100973.88;5032971;28;20199;-81
2022/09/12 07:08:30;;;;;;;15.00;11.83;;;;;;;14.29;94.55;100976.38;5033431;28;20217;-82
2022/09/12 07:10:57;;;;;;;14.70;11.00;;;;;;;14.44;94.55;100969.06;5033131;28;20226;-81
2022/09/12 07:13:24;;;;;;;15.03;11.40;;;;;;;14.58;94.01;100971.56;5033142;28;20276;-83
2022/09/12 07:15:51;;;;;;;14.90;11.43;;;;;;;14.72;93.93;100968.69;5031291;28;20237;-82
2022/09/12 07:18:19;;;;;;;14.90;11.43;;;;;;;14.87;94.13;100966.66;5040143;28;20207;-81
2022/09/12 07:20:46;;;;;;;14.07;10.63;;;;;;;15.00;93.92;100970.16;5032025;28;20232;-83
2022/09/12 07:23:12;;;;;;;14.33;11.03;;;;;;;15.14;92.90;100974.44;5029845;28;20596;-82
2022/09/12 07:25:39;;;;;;;14.57;10.67;;;;;;;15.27;92.43;100969.81;5030689;28;20213;-82
2022/09/12 07:28:05;;;;;;;14.67;11.30;;;;;;;15.39;91.96;100976.09;5032548;28;20207;-81
2022/09/12 07:30:32;;;;;;;12.93;10.17;;;;;;;15.50;91.25;100976.94;5029685;28;20232;-81
2022/09/12 07:32:58;;;;;;;11.47;9.90;;;;;;;15.63;90.80;100972.34;5032659;28;20202;-82
2022/09/12 07:35:26;;;;;;;12.90;9.93;;;;;;;15.77;90.54;100970.38;5033159;28;20227;-82
2022/09/12 07:37:52;;;;;;;12.70;10.13;;;;;;;15.91;90.44;100968.31;5033865;28;20576;-81
2022/09/12 07:40:19;;;;;;;12.30;9.70;;;;;;;16.04;89.76;100975.38;5032124;28;20606;-84
2022/09/12 07:42:46;;;;;;;10.70;9.57;;;;;;;16.15;89.22;100964.59;5031876;28;20212;-81
2022/09/12 07:45:13;;;;;;;10.50;9.03;;;;;;;16.26;88.39;100969.97;5035070;28;20232;-83
2022/09/12 07:47:39;;;;;;;10.23;9.13;;;;;;;16.37;87.59;100969.94;5034851;28;20205;-83
2022/09/12 07:50:07;;;;;;;10.57;8.73;;;;;;;16.48;86.66;100972.56;5033467;28;20251;-82
2022/09/12 07:52:35;;;;;;;14.00;9.27;;;;;;;16.60;85.92;100973.41;5032335;28;20201;-81
2022/09/12 07:55:01;;;;;;;9.97;7.47;;;;;;;16.73;85.50;100971.41;5029425;28;20758;-81
2022/09/12 07:57:28;;;;;;;9.50;8.50;;;;;;;16.87;85.22;100978.31;5034804;28;20648;-84
2022/09/12 07:59:54;;;;;;;9.80;7.63;;;;;;;17.04;84.94;100971.50;5031893;28;20682;-82
2022/09/12 08:02:21;;;;;;;9.63;7.37;;;;;;;17.18;83.95;100977.44;5037151;28;20576;-84
2022/09/12 08:04:48;;;;;;;9.20;7.87;;;;;;;17.29;83.08;100974.66;5034564;28;20212;-82
2022/09/12 08:07:16;;;;;;;9.00;7.80;;;;;;;17.43;82.72;100969.91;5032373;28;20312;-81
2022/09/12 08:09:45;;;;;;;9.37;7.47;;;;;;;17.57;81.95;100974.94;5031255;28;20712;-82
2022/09/12 08:12:11;;;;;;;8.67;7.23;;;;;;;17.71;81.29;100977.34;5031173;28;20215;-81
2022/09/12 08:14:37;;;;;;;8.63;7.20;;;;;;;17.81;80.67;100972.84;5031666;28;20227;-81
2022/09/12 08:17:05;;;;;;;11.83;7.87;;;;;;;17.93;80.24;100981.66;5035173;28;20214;-82
2022/09/12 08:19:32;;;;;;;8.47;7.07;;;;;;;18.07;80.28;100975.06;5029212;28;20674;-81
2022/09/12 08:21:58;;;;;;;11.37;7.70;;;;;;;18.21;79.95;100975.53;5029885;28;20227;-82
2022/09/12 08:24:25;;;;;;;8.00;7.20;;;;;;;18.36;79.64;100978.66;5031201;28;20695;-81
2022/09/12 08:26:52;;;;;;;7.90;7.00;;;;;;;18.50;78.65;100972.88;5031707;28;20220;-82
2022/09/12 08:29:19;;;;;;;7.40;6.60;;;;;;;18.63;77.88;100976.16;5031792;28;20213;-82
2022/09/12 08:31:46;;;;;;;7.47;6.67;;;;;;;18.76;77.56;100975.91;5033087;28;20264;-82
2022/09/12 08:34:12;;;;;;;7.63;6.53;;;;;;;18.85;76.19;100964.25;5036438;28;20209;-81
2022/09/12 08:36:39;;;;;;;8.50;6.70;;;;;;;18.93;75.53;100964.41;5033880;28;20581;-83
2022/09/12 08:39:07;;;;;;;7.47;5.87;;;;;;;19.03;75.10;100961.69;5034215;28;20696;-82
2022/09/12 08:41:37;;;;;;;7.10;6.33;;;;;;;19.11;73.91;100963.66;5034458;28;20297;-84
2022/09/12 08:44:21;;;;;;;8.00;6.33;;;;;;;19.20;73.46;100962.78;5035441;28;20209;-83
2022/09/12 08:47:02;;;;;;;6.90;6.20;;;;;;;19.32;73.32;100959.78;5032357;28;20571;-81
2022/09/12 08:49:32;;;;;;;7.90;5.50;;;;;;;19.45;72.45;100954.06;5032798;28;20201;-81
2022/09/12 08:52:05;;;;;;;9.60;6.53;;;;;;;19.56;72.07;100953.91;5033282;28;20227;-82
2022/09/12 08:54:33;;;;;;;6.10;5.50;;;;;;;19.69;71.58;100951.75;5034956;28;20844;-81
2022/09/12 08:57:04;;;;;;;6.40;5.30;;;;;;;19.83;70.92;100953.09;5033037;28;20209;-81
2022/09/12 08:59:36;;;;;;;7.70;5.67;;;;;;;19.96;69.97;100950.03;5029430;28;20212;-83
2022/09/12 09:02:16;;;;;;;8.17;5.53;;;;;;;20.07;69.35;100947.97;5032870;28;20541;-84
2022/09/12 09:04:50;;;;;;;5.90;5.30;;;;;;;20.23;68.54;100946.47;5027453;28;20199;-81
2022/09/12 09:07:42;;;;;;;7.27;4.37;;;;;;;20.37;68.14;100946.00;5031332;28;20238;-81
2022/09/12 09:10:20;;;;;;;4.28;3.88;;;;;;;20.45;66.04;100946.91;5035961;28;20710;-81
2022/09/12 09:12:59;;;;;;;5.03;3.53;;;;;;;20.52;65.05;100941.75;5033484;28;20204;-83
2022/09/12 09:15:47;;;;;;;3.72;3.15;;;;;;;20.65;64.53;100947.59;5038426;28;20221;-83
2022/09/12 09:18:19;;;;;;;3.20;2.90;;;;;;;20.79;63.12;100935.38;5037372;28;20336;-82
2022/09/12 09:20:50;;;;;;;7.38;3.63;;;;;;;20.94;61.83;100927.56;5036260;28;20313;-83
2022/09/12 09:23:24;;;;;;;3.63;2.72;;;;;;;21.07;61.05;100931.56;5036267;28;20206;-81
2022/09/12 09:25:57;;;;;;;3.60;2.90;;;;;;;21.23;60.36;100928.16;5034268;28;20222;-82
2022/09/12 09:28:31;;;;;;;3.58;3.10;;;;;;;21.38;58.98;100923.84;5032732;28;20206;-81
2022/09/12 09:30:59;;;;;;;2.75;2.33;;;;;;;21.46;58.98;100929.31;5029669;28;20222;-82
2022/09/12 09:33:30;;;;;;;3.90;2.60;;;;;;;21.55;57.55;100923.91;5031400;28;20198;-82
2022/09/12 09:36:05;;;;;;;3.22;2.80;;;;;;;21.59;56.24;100930.72;5026781;28;20693;-81
2022/09/12 09:38:41;;;;;;;3.75;2.70;;;;;;;21.64;55.98;100928.38;5036411;28;20236;-83
2022/09/12 09:41:22;;;;;;;3.30;2.72;;;;;;;21.76;55.89;100924.38;5038497;28;20229;-84
2022/09/12 09:43:49;;;;;;;3.08;2.88;;;;;;;21.86;54.96;100925.06;5037585;28;20209;-83
2022/09/12 09:46:17;;;;;;;4.80;2.75;;;;;;;21.94;55.21;100916.97;5036492;28;20213;-82
2022/09/12 09:48:48;;;;;;;3.10;2.80;;;;;;;22.05;55.37;100916.72;5033344;28;20209;-82
2022/09/12 09:51:17;;;;;;;2.72;2.53;;;;;;;22.12;55.13;100920.47;5030682;28;20226;-82
2022/09/12 09:53:48;;;;;;;2.90;2.63;;;;;;;22.17;54.47;100907.25;5044086;28;20209;-82
2022/09/12 09:56:27;;;;;;;3.78;2.50;;;;;;;22.23;54.59;100904.88;5034064;28;20230;-83
2022/09/12 09:58:54;;;;;;;3.92;2.80;;;;;;;22.29;54.01;100902.38;5033317;28;20212;-82
2022/09/12 10:01:22;;;;;;;3.25;2.65;;;;;;;22.36;53.61;100907.97;5036664;28;20222;-82
2022/09/12 10:03:50;;;;;;;3.17;2.42;;;;;;;22.40;53.53;100903.91;5033773;28;20202;-82
2022/09/12 10:06:26;;;;;;;3.45;2.15;;;;;;;22.44;53.32;100907.97;5041946;28;20202;-81
2022/09/12 10:09:06;;;;;;;3.30;2.22;;;;;;;22.45;53.15;100898.81;5036232;28;20202;-82
2022/09/12 10:11:32;;;;;;;2.67;2.47;;;;;;;22.47;53.29;100897.63;5027083;28;20287;-82
2022/09/12 10:14:00;;;;;;;2.28;2.08;;;;;;;22.50;52.47;100899.16;5034263;28;20221;-82
2022/09/12 10:16:29;;;;;;;2.90;2.05;;;;;;;22.53;52.43;100893.41;5034007;28;20221;-82
2022/09/12 10:18:57;;;;;;;2.47;2.05;;;;;;;22.58;51.49;100892.88;5033154;28;20213;-83
2022/09/12 10:21:33;;;;;;;2.85;2.15;;;;;;;22.56;50.55;100893.09;5034499;28;20224;-81
2022/09/12 10:24:14;;;;;;;2.08;1.63;;;;;;;22.57;49.83;100888.50;5032499;28;20212;-81
2022/09/12 10:26:43;;;;;;;1.63;1.52;;;;;;;22.58;49.91;100885.59;5035454;28;20201;-83
2022/09/12 10:29:16;;;;;;;1.70;1.60;;;;;;;22.59;49.38;100881.84;5038014;28;20205;-83
2022/09/12 10:31:49;;;;;;;1.50;1.40;;;;;;;22.60;49.12;100883.56;5035940;28;20225;-83
2022/09/12 10:34:22;;;;;;;1.77;1.35;;;;;;;22.64;49.02;100876.78;5035052;28;20205;-82
2022/09/12 10:36:53;;;;;;;2.17;1.40;;;;;;;22.68;48.82;100888.16;5028932;28;20217;-82
2022/09/12 10:39:20;;;;;;;2.63;2.05;;;;;;;22.71;48.92;100874.25;5038367;28;20213;-83
2022/09/12 10:41:47;;;;;;;2.60;1.83;;;;;;;22.77;49.27;100884.44;5033024;28;20233;-82
2022/09/12 10:44:16;;;;;;;2.30;1.67;;;;;;;22.82;48.77;100882.06;5031167;28;20206;-84
2022/09/12 10:46:44;;;;;;;1.73;1.63;;;;;;;22.79;47.66;100876.97;5032234;28;20211;-84
2022/09/12 10:49:24;;;;;;;2.13;1.40;;;;;;;22.77;47.93;100871.72;5038889;28;20224;-83
2022/09/12 10:51:52;;;;;;;2.00;1.90;;;;;;;22.78;47.89;100864.41;5032816;28;20324;-84
2022/09/12 10:54:22;;;;;;;2.53;1.60;;;;;;;22.82;48.31;100868.50;5032772;28;20225;-85
2022/09/12 10:57:25;;;;;;;2.58;1.75;;;;;;;22.85;47.90;100866.28;5035443;28;20754;-84
2022/09/12 11:00:14;;;;;;;2.20;1.70;;;;;;;22.89;47.69;100869.50;5029782;28;20598;-82
2022/09/12 11:03:05;;;;;;;2.15;1.95;;;;;;;22.94;47.91;100864.38;5037556;28;20222;-83
2022/09/12 11:05:45;;;;;;;3.05;1.90;;;;;;;22.97;47.50;100864.06;5036655;28;20206;-83
2022/09/12 11:08:30;;;;;;;2.10;1.90;;;;;;;23.04;48.39;100859.63;5034407;28;20213;-83
2022/09/12 11:11:04;;;;;;;2.13;1.92;;;;;;;23.15;48.76;100856.53;5031301;28;20230;-82
2022/09/12 11:13:50;;;;;;;3.30;2.20;;;;;;;23.20;48.75;100853.31;5037421;28;20223;-82
2022/09/12 11:16:25;;;;;;;2.63;2.15;;;;;;;23.27;48.59;100853.47;5032869;28;20210;-81
2022/09/12 11:19:13;;;;;;;2.03;1.90;;;;;;;23.26;47.82;100857.22;5030267;28;20668;-84
2022/09/12 11:21:54;;;;;;;2.20;1.80;;;;;;;23.23;47.24;100858.41;5029738;28;20727;-82
2022/09/12 11:24:32;;;;;;;1.77;1.63;;;;;;;23.25;46.94;100848.22;5029467;28;20221;-82
2022/09/12 11:27:19;;;;;;;1.55;1.45;;;;;;;23.27;46.10;100848.03;5030353;28;20635;-83
2022/09/12 11:29:50;;;;;;;2.85;1.70;;;;;;;23.27;45.64;100845.31;5022424;28;20212;-84
2022/09/12 11:32:41;;;;;;;2.30;1.85;;;;;;;23.30;46.61;100848.50;5032102;28;20210;-83
2022/09/12 11:35:19;;;;;;;3.67;1.90;;;;;;;23.31;45.50;100843.94;5031087;28;20206;-84